Time;durP1;ratioP1;P1;durP2;ratioP2;P2;SDS_P1;SDS_P2;PMS_P1;PMS_P2;Temp;Humidity;BMP_temperature;BMP_pressure;BME280_temperature;BME280_humidity;BME280_pressure;Samples;Min_cycle;Max_cycle;Signal;HPM_P1;HPM_P2
2021/08/27 00:00:34;;;;;;;23.87;11.68;;;;;;;10.28;82.85;94080.02;1674143;85;21181;-55
2021/08/27 00:03:01;;;;;;;21.23;11.48;;;;;;;10.28;83.01;94075.12;1674092;85;21438;-54
2021/08/27 00:05:28;;;;;;;17.45;10.35;;;;;;;10.31;83.04;94070.09;1674098;85;20965;-54
2021/08/27 00:07:56;;;;;;;20.85;11.60;;;;;;;10.33;83.17;94068.39;1673971;85;21041;-54
2021/08/27 00:10:24;;;;;;;20.12;11.03;;;;;;;10.36;83.35;94074.34;1674161;85;21045;-54
2021/08/27 00:12:52;;;;;;;20.05;11.40;;;;;;;10.40;83.33;94072.22;1674258;85;21794;-54
2021/08/27 00:15:19;;;;;;;18.17;11.03;;;;;;;10.42;83.33;94068.98;1674430;84;21006;-54
2021/08/27 00:17:47;;;;;;;21.12;11.12;;;;;;;10.45;83.38;94059.81;1674206;85;20998;-54
2021/08/27 00:20:15;;;;;;;17.87;11.57;;;;;;;10.50;83.44;94060.58;1674312;85;21522;-54
2021/08/27 00:22:42;;;;;;;23.25;11.18;;;;;;;10.58;83.28;94067.27;1674248;85;21057;-54
2021/08/27 00:25:12;;;;;;;25.20;11.88;;;;;;;10.67;83.27;94062.50;1678209;84;21068;-54
2021/08/27 00:27:39;;;;;;;19.98;11.50;;;;;;;10.75;83.16;94063.08;1694432;84;20934;-54
2021/08/27 00:30:08;;;;;;;16.97;10.60;;;;;;;10.80;82.76;94068.58;1694538;84;21017;-54
2021/08/27 00:32:36;;;;;;;16.65;10.53;;;;;;;10.82;82.56;94064.73;1693100;84;21013;-54
2021/08/27 00:35:04;;;;;;;17.73;10.63;;;;;;;10.81;82.50;94063.96;1684790;85;21064;-54
2021/08/27 00:37:34;;;;;;;18.50;10.53;;;;;;;10.82;82.33;94058.61;1684709;85;21158;-54
2021/08/27 00:40:01;;;;;;;24.98;11.28;;;;;;;10.85;82.12;94068.71;1684734;84;21442;-55
2021/08/27 00:42:28;;;;;;;22.37;10.93;;;;;;;10.85;82.29;94067.94;1684807;85;21006;-54
2021/08/27 00:44:54;;;;;;;18.73;10.75;;;;;;;10.91;82.50;94075.09;1684710;85;21501;-54
2021/08/27 00:47:22;;;;;;;18.25;10.40;;;;;;;11.00;82.35;94079.80;1684786;85;21026;-54
2021/08/27 00:49:51;;;;;;;13.65;9.63;;;;;;;11.05;82.05;94079.16;1684784;84;21438;-54
2021/08/27 00:52:17;;;;;;;19.55;10.40;;;;;;;11.02;81.96;94080.09;1640928;85;20958;-54
2021/08/27 00:54:50;;;;;;;21.27;11.38;;;;;;;10.98;82.17;94074.75;1686571;85;21070;-54
2021/08/27 00:57:18;;;;;;;17.27;10.30;;;;;;;10.99;82.23;94076.27;1684819;84;20965;-55
2021/08/27 00:59:44;;;;;;;19.23;10.72;;;;;;;11.00;82.08;94068.79;1685021;84;21021;-55
2021/08/27 01:02:11;;;;;;;19.00;9.53;;;;;;;10.99;82.01;94073.52;1684796;85;21146;-55
2021/08/27 01:04:40;;;;;;;17.37;9.75;;;;;;;10.97;81.96;94074.60;1684776;84;21696;-55
2021/08/27 01:07:23;;;;;;;13.50;9.03;;;;;;;10.97;82.09;94073.86;1683565;85;21514;-55
2021/08/27 01:10:30;;;;;;;17.82;9.03;;;;;;;10.96;82.14;94070.33;1684834;85;20966;-53
2021/08/27 01:13:23;;;;;;;14.35;9.08;;;;;;;10.94;82.24;94072.78;1684727;84;21009;-54
2021/08/27 01:15:55;;;;;;;17.20;9.93;;;;;;;10.92;82.53;94076.62;1685159;85;21426;-55
2021/08/27 01:18:45;;;;;;;12.93;9.10;;;;;;;10.90;82.67;94072.20;1684821;85;20954;-55
2021/08/27 01:21:50;;;;;;;16.85;9.20;;;;;;;10.86;82.81;94075.73;1684972;85;21474;-55
2021/08/27 01:24:18;;;;;;;13.83;10.32;;;;;;;10.86;83.09;94075.73;1684911;85;21453;-54
2021/08/27 01:26:49;;;;;;;18.35;11.15;;;;;;;10.89;83.21;94072.05;1679376;84;21009;-53
2021/08/27 01:29:31;;;;;;;19.82;11.73;;;;;;;10.91;83.09;94070.97;1674333;85;21577;-54
2021/08/27 01:32:08;;;;;;;13.18;9.30;;;;;;;10.95;83.16;94077.69;1673742;85;21014;-55
2021/08/27 01:34:38;;;;;;;19.80;10.32;;;;;;;10.98;83.09;94070.62;1674223;85;21066;-54
2021/08/27 01:37:11;;;;;;;15.00;10.23;;;;;;;11.07;82.97;94076.09;1653285;85;21014;-55
2021/08/27 01:39:41;;;;;;;16.82;11.45;;;;;;;11.10;82.97;94074.38;1674128;84;21077;-54
2021/08/27 01:42:10;;;;;;;14.70;10.15;;;;;;;11.12;83.24;94078.20;1674076;84;21138;-54
2021/08/27 01:44:38;;;;;;;15.85;10.50;;;;;;;11.18;83.09;94083.84;1674085;85;21006;-54
2021/08/27 01:47:07;;;;;;;18.57;11.38;;;;;;;11.18;82.75;94084.59;1674126;84;21058;-54
2021/08/27 01:49:34;;;;;;;16.05;10.18;;;;;;;11.16;82.75;94082.17;1674165;85;21077;-54
2021/08/27 01:52:08;;;;;;;16.05;10.32;;;;;;;11.15;82.87;94083.41;1674188;84;21010;-55
2021/08/27 01:54:35;;;;;;;15.75;10.30;;;;;;;11.17;82.88;94081.69;1674070;85;21157;-54
2021/08/27 01:57:04;;;;;;;19.57;11.15;;;;;;;11.21;82.95;94079.52;1674067;85;21463;-54
2021/08/27 01:59:35;;;;;;;20.43;10.82;;;;;;;11.26;82.75;94082.26;1674214;85;20966;-54
2021/08/27 02:02:02;;;;;;;20.70;10.90;;;;;;;11.31;82.60;94081.64;1674402;85;21415;-54
2021/08/27 02:04:29;;;;;;;17.15;10.40;;;;;;;11.35;82.35;94080.84;1674335;84;21435;-54
2021/08/27 02:06:58;;;;;;;15.65;10.53;;;;;;;11.36;82.34;94081.73;1674016;85;20958;-55
2021/08/27 02:09:25;;;;;;;16.42;10.10;;;;;;;11.40;82.35;94071.34;1674128;85;21062;-54
2021/08/27 02:11:52;;;;;;;17.62;11.33;;;;;;;11.44;82.31;94067.78;1674290;85;21427;-54
2021/08/27 02:14:18;;;;;;;18.32;9.58;;;;;;;11.46;82.15;94070.05;1674168;85;21418;-54
2021/08/27 02:16:45;;;;;;;17.85;10.25;;;;;;;11.48;81.99;94065.61;1674475;85;21069;-54
2021/08/27 02:19:11;;;;;;;14.58;9.75;;;;;;;11.47;81.89;94065.47;1674175;85;21147;-54
2021/08/27 02:21:41;;;;;;;15.80;10.03;;;;;;;11.44;81.89;94065.63;1674378;84;20954;-54
2021/08/27 02:24:15;;;;;;;14.30;9.65;;;;;;;11.41;82.20;94058.31;1674074;84;20993;-54
2021/08/27 02:26:44;;;;;;;15.23;9.55;;;;;;;11.39;82.31;94066.28;1674343;84;21018;-54
2021/08/27 02:29:15;;;;;;;18.48;10.03;;;;;;;11.35;82.59;94065.70;1674136;84;21001;-55
2021/08/27 02:31:49;;;;;;;14.05;8.98;;;;;;;11.33;82.47;94062.66;1674350;85;21766;-54
2021/08/27 02:34:17;;;;;;;17.37;10.38;;;;;;;11.31;82.63;94064.48;1674231;84;21001;-54
2021/08/27 02:36:45;;;;;;;15.45;9.90;;;;;;;11.33;82.52;94059.91;1674078;85;21537;-54
2021/08/27 02:39:14;;;;;;;18.37;9.73;;;;;;;11.34;82.63;94064.92;1674289;85;21439;-54
2021/08/27 02:41:41;;;;;;;15.15;10.15;;;;;;;11.35;82.74;94071.20;1674209;85;20974;-54
2021/08/27 02:44:08;;;;;;;13.03;8.93;;;;;;;11.40;82.72;94069.95;1674044;85;21100;-54
2021/08/27 02:46:35;;;;;;;13.30;8.73;;;;;;;11.43;82.34;94069.62;1653307;85;21510;-54
2021/08/27 02:49:01;;;;;;;13.65;8.43;;;;;;;11.38;82.11;94064.76;1674253;85;21482;-55
2021/08/27 02:51:37;;;;;;;13.62;10.03;;;;;;;11.33;82.35;94070.28;1674063;85;20970;-54
2021/08/27 02:54:05;;;;;;;16.37;8.98;;;;;;;11.32;82.55;94071.52;1674114;84;21017;-54
2021/08/27 02:56:37;;;;;;;16.07;9.80;;;;;;;11.37;82.51;94077.75;1674333;85;21123;-54
2021/08/27 02:59:10;;;;;;;15.60;9.18;;;;;;;11.40;82.37;94076.84;1674128;84;21457;-54
2021/08/27 03:01:37;;;;;;;13.20;9.00;;;;;;;11.45;82.13;94074.81;1673650;84;21049;-54
2021/08/27 03:04:14;;;;;;;15.40;8.88;;;;;;;11.51;81.88;94074.30;1675803;85;21049;-55
2021/08/27 03:07:05;;;;;;;16.15;9.73;;;;;;;11.54;81.60;94078.87;1653415;85;20973;-53
2021/08/27 03:09:25;;;;;;;14.50;9.63;;;;;;;11.58;81.33;94078.73;1672923;85;21415;-54
2021/08/27 03:11:58;;;;;;;11.05;7.97;;;;;;;11.60;80.96;94075.67;1674074;85;21593;-54
2021/08/27 03:14:38;;;;;;;11.48;8.63;;;;;;;11.56;80.74;94073.68;1674241;85;21038;-54
2021/08/27 03:17:08;;;;;;;17.40;9.03;;;;;;;11.41;81.10;94079.74;1674074;84;21066;-54
2021/08/27 03:20:12;;;;;;;15.78;10.48;;;;;;;11.24;81.45;94081.37;1674300;85;21085;-53
2021/08/27 03:22:44;;;;;;;16.23;9.90;;;;;;;11.14;82.01;94081.25;1668726;85;21459;-53
2021/08/27 03:25:10;;;;;;;14.43;9.93;;;;;;;11.12;82.59;94078.20;1672195;85;20970;-54
2021/08/27 03:27:53;;;;;;;14.58;10.00;;;;;;;11.12;82.76;94085.09;1675880;84;21009;-54
2021/08/27 03:30:22;;;;;;;17.73;9.88;;;;;;;11.13;82.69;94079.73;1680404;85;21030;-54
2021/08/27 03:32:52;;;;;;;13.70;9.83;;;;;;;11.13;82.95;94076.98;1680446;85;20969;-54
2021/08/27 03:35:20;;;;;;;15.68;10.15;;;;;;;11.19;83.29;94077.85;1680173;85;21125;-54
2021/08/27 03:37:51;;;;;;;15.18;11.03;;;;;;;11.28;83.34;94079.80;1680522;84;20998;-54
2021/08/27 03:40:19;;;;;;;16.47;10.77;;;;;;;11.34;83.28;94077.31;1680423;85;21037;-54
2021/08/27 03:42:46;;;;;;;17.52;10.05;;;;;;;11.40;83.08;94078.22;1680562;85;20970;-54
2021/08/27 03:45:13;;;;;;;14.30;9.83;;;;;;;11.47;82.97;94086.13;1680137;84;21013;-54
2021/08/27 03:47:40;;;;;;;16.48;10.55;;;;;;;11.54;82.78;94088.52;1680428;85;21442;-55
2021/08/27 03:50:10;;;;;;;17.45;10.72;;;;;;;11.58;82.57;94086.40;1680218;85;20981;-54
2021/08/27 03:52:37;;;;;;;18.10;10.82;;;;;;;11.60;82.28;94096.33;1680640;85;21061;-54
2021/08/27 03:55:05;;;;;;;21.15;10.98;;;;;;;11.56;82.15;94092.97;1680322;84;21049;-54
2021/08/27 03:57:32;;;;;;;20.92;11.80;;;;;;;11.52;82.08;94085.47;1660941;85;20981;-54
2021/08/27 03:59:59;;;;;;;22.87;11.53;;;;;;;11.48;82.37;94078.00;1680587;84;21912;-54
2021/08/27 04:02:27;;;;;;;22.45;11.30;;;;;;;11.48;82.27;94079.98;1680589;85;20993;-54
2021/08/27 04:05:13;;;;;;;22.13;11.57;;;;;;;11.41;82.42;94071.48;1680376;85;21029;-54
2021/08/27 04:07:41;;;;;;;14.90;11.33;;;;;;;11.39;82.88;94076.66;1680601;85;21620;-54
2021/08/27 04:10:11;;;;;;;18.87;11.68;;;;;;;11.42;82.84;94081.27;1680306;85;20942;-54
2021/08/27 04:12:40;;;;;;;18.07;11.35;;;;;;;11.43;82.83;94084.16;1680650;84;21126;-54
2021/08/27 04:15:08;;;;;;;22.85;11.70;;;;;;;11.44;82.69;94092.57;1680227;85;21001;-54
2021/08/27 04:17:36;;;;;;;16.15;10.93;;;;;;;11.42;82.75;94086.77;1680636;84;21517;-53
2021/08/27 04:20:05;;;;;;;19.73;12.58;;;;;;;11.44;82.83;94087.66;1680380;85;21081;-53
2021/08/27 04:22:32;;;;;;;21.27;12.58;;;;;;;11.50;82.98;94083.05;1680590;85;21095;-55
2021/08/27 04:25:00;;;;;;;25.23;12.03;;;;;;;11.60;83.05;94088.06;1680307;84;20962;-55
2021/08/27 04:27:29;;;;;;;18.55;10.65;;;;;;;11.67;83.12;94090.45;1678808;85;21018;-55
2021/08/27 04:29:55;;;;;;;21.33;10.80;;;;;;;11.75;82.94;94094.37;1674445;85;21533;-55
2021/08/27 04:32:22;;;;;;;24.70;11.30;;;;;;;11.81;82.67;94091.12;1674193;85;21002;-55
2021/08/27 04:34:49;;;;;;;21.10;11.93;;;;;;;11.83;82.31;94106.58;1674164;84;21014;-55
2021/08/27 04:37:16;;;;;;;25.90;11.85;;;;;;;11.81;82.15;94088.98;1674155;85;21228;-55
2021/08/27 04:39:43;;;;;;;18.30;10.75;;;;;;;11.84;82.34;94097.08;1674299;85;20975;-55
2021/08/27 04:42:10;;;;;;;18.62;10.80;;;;;;;11.89;82.00;94087.41;1674120;84;21006;-54
2021/08/27 04:44:37;;;;;;;18.10;10.05;;;;;;;11.91;81.92;94088.44;1674242;84;21006;-55
2021/08/27 04:47:04;;;;;;;19.67;11.30;;;;;;;11.96;81.95;94089.19;1674394;84;21486;-55
2021/08/27 04:49:32;;;;;;;16.23;11.30;;;;;;;12.07;81.97;94092.14;1674262;85;21218;-55
2021/08/27 04:51:59;;;;;;;20.75;11.73;;;;;;;12.19;81.99;94098.02;1674188;85;21006;-55
2021/08/27 04:54:26;;;;;;;20.35;11.70;;;;;;;12.33;81.98;94102.03;1674285;85;21540;-55
2021/08/27 04:56:53;;;;;;;34.18;10.65;;;;;;;12.48;81.62;94101.44;1674145;85;21045;-54
2021/08/27 04:59:20;;;;;;;16.87;9.73;;;;;;;12.54;81.04;94108.58;1674300;84;21027;-55
2021/08/27 05:01:49;;;;;;;26.93;10.93;;;;;;;12.55;80.57;94102.57;1674126;84;21183;-55
2021/08/27 05:04:16;;;;;;;15.90;10.18;;;;;;;12.52;80.14;94097.27;1674157;84;20990;-55
2021/08/27 05:06:44;;;;;;;18.60;10.68;;;;;;;12.49;79.89;94106.46;1674614;85;21509;-55
2021/08/27 05:09:12;;;;;;;20.43;10.30;;;;;;;12.51;79.58;94103.24;1674241;85;21006;-55
2021/08/27 05:11:39;;;;;;;15.48;9.28;;;;;;;12.58;79.34;94098.11;1674463;85;21002;-54
2021/08/27 05:14:05;;;;;;;17.65;9.95;;;;;;;12.66;78.79;94106.14;1674053;84;21148;-56
2021/08/27 05:16:34;;;;;;;22.00;9.18;;;;;;;12.66;78.47;94108.91;1674063;84;21057;-54
2021/08/27 05:19:02;;;;;;;14.03;9.95;;;;;;;12.70;78.20;94115.02;1674044;85;20958;-55
2021/08/27 05:21:31;;;;;;;16.62;8.88;;;;;;;12.75;78.16;94106.06;1674181;85;20970;-55
2021/08/27 05:23:58;;;;;;;17.30;9.58;;;;;;;12.83;78.14;94102.44;1674261;84;21415;-55
2021/08/27 05:26:25;;;;;;;25.57;10.05;;;;;;;12.93;77.93;94098.99;1674481;85;21490;-55
2021/08/27 05:28:51;;;;;;;15.50;9.45;;;;;;;13.03;77.84;94087.97;1687885;84;21469;-55
2021/08/27 05:31:18;;;;;;;19.02;9.23;;;;;;;13.15;77.81;94086.91;1688533;84;21478;-55
2021/08/27 05:33:45;;;;;;;14.58;10.20;;;;;;;13.29;77.75;94081.34;1676423;83;21820;-55
2021/08/27 05:36:11;;;;;;;12.55;8.68;;;;;;;13.46;77.35;94082.34;1688344;83;21017;-60
2021/08/27 05:38:38;;;;;;;21.02;9.75;;;;;;;13.59;76.83;94070.35;1716255;81;22241;-56
2021/08/27 05:41:06;;;;;;;21.80;10.25;;;;;;;13.70;76.13;94071.89;1715279;81;21111;-55
2021/08/27 05:43:33;;;;;;;15.03;8.00;;;;;;;13.78;75.90;94066.72;1703420;82;21038;-56
2021/08/27 05:46:00;;;;;;;14.58;7.75;;;;;;;13.81;74.88;94068.50;1722589;81;21017;-55
2021/08/27 05:48:26;;;;;;;15.88;7.50;;;;;;;13.78;74.04;94064.70;1721244;81;21126;-55
2021/08/27 05:50:53;;;;;;;11.93;8.83;;;;;;;13.83;73.39;94066.76;1735219;81;21112;-54
2021/08/27 05:53:20;;;;;;;20.37;9.08;;;;;;;13.93;72.85;94066.00;1717207;81;21175;-55
2021/08/27 05:55:46;;;;;;;32.35;12.33;;;;;;;13.99;72.83;94067.59;1713487;81;21115;-54
2021/08/27 05:58:13;;;;;;;23.77;9.53;;;;;;;14.05;73.02;94073.19;1710889;82;20964;-55
2021/08/27 06:00:39;;;;;;;36.98;14.00;;;;;;;14.08;72.51;94073.59;1709570;82;21094;-56
2021/08/27 06:03:06;;;;;;;20.48;10.03;;;;;;;14.10;72.55;94066.95;1701689;81;21162;-57
2021/08/27 06:05:34;;;;;;;31.45;12.10;;;;;;;14.12;72.33;94078.29;1697974;83;21031;-55
2021/08/27 06:08:01;;;;;;;24.15;11.38;;;;;;;14.08;72.16;94074.98;1689705;82;21038;-60
2021/08/27 06:10:30;;;;;;;23.12;9.83;;;;;;;14.12;72.36;94075.52;1693364;83;21133;-59
2021/08/27 06:12:56;;;;;;;16.02;8.70;;;;;;;14.18;72.12;94077.14;1703839;82;21513;-58
2021/08/27 06:15:25;;;;;;;51.95;29.37;;;;;;;14.25;72.22;94076.73;1697597;82;23132;-55
2021/08/27 06:17:52;;;;;;;27.27;19.35;;;;;;;14.34;72.23;94078.59;1693401;82;21098;-54
2021/08/27 06:20:18;;;;;;;20.27;11.10;;;;;;;14.41;71.14;94089.22;1692354;83;21558;-57
2021/08/27 06:22:45;;;;;;;19.40;9.93;;;;;;;14.43;71.20;94093.03;1689696;82;21517;-55
2021/08/27 06:25:18;;;;;;;13.05;8.15;;;;;;;14.44;70.60;94103.59;1696453;82;21097;-56
2021/08/27 06:27:46;;;;;;;17.25;8.93;;;;;;;14.43;70.52;94106.23;1692345;83;21366;-57
2021/08/27 06:30:13;;;;;;;18.92;11.70;;;;;;;14.42;70.89;94103.97;1719443;82;21537;-57
2021/08/27 06:32:40;;;;;;;15.18;10.18;;;;;;;14.39;70.88;94100.02;1721259;82;21041;-55
2021/08/27 06:35:08;;;;;;;24.85;13.18;;;;;;;14.38;71.37;94100.63;1721947;82;21119;-57
2021/08/27 06:40:24;;;;;;;28.05;11.60;;;;;;;14.46;71.91;94096.95;1723417;81;21161;-57
2021/08/27 06:42:51;;;;;;;24.00;10.60;;;;;;;14.51;71.83;94094.88;1703471;82;20929;-56
2021/08/27 06:45:18;;;;;;;16.80;10.95;;;;;;;14.59;72.11;94093.19;1710312;82;21081;-59
2021/08/27 06:47:46;;;;;;;25.57;9.03;;;;;;;14.63;72.11;94090.95;1718018;82;21109;-58
2021/08/27 06:50:13;;;;;;;17.15;8.63;;;;;;;14.65;71.78;94092.61;1706090;82;21507;-56
2021/08/27 06:52:40;;;;;;;19.05;9.45;;;;;;;14.65;71.46;94105.07;1703740;82;21449;-59
2021/08/27 06:55:09;;;;;;;18.23;9.05;;;;;;;14.67;71.45;94111.52;1713148;82;22214;-58
2021/08/27 06:57:35;;;;;;;12.85;8.10;;;;;;;14.68;70.63;94119.34;1709222;82;21558;-57
2021/08/27 07:00:05;;;;;;;18.82;8.40;;;;;;;14.74;70.48;94113.84;1725190;81;38860;-57
2021/08/27 07:02:32;;;;;;;13.53;7.05;;;;;;;14.84;70.27;94111.80;1713463;82;21539;-57
2021/08/27 07:04:59;;;;;;;20.20;8.93;;;;;;;15.03;70.32;94106.05;1703791;81;21604;-58
2021/08/27 07:07:26;;;;;;;17.57;8.40;;;;;;;15.17;69.81;94102.40;1707571;81;21450;-57
2021/08/27 07:09:55;;;;;;;22.87;9.75;;;;;;;15.43;69.83;94103.14;1717964;81;21029;-57
2021/08/27 07:12:22;;;;;;;21.65;10.15;;;;;;;15.68;69.12;94114.77;1725524;81;21192;-57
2021/08/27 07:14:50;;;;;;;17.32;8.43;;;;;;;15.81;68.36;94115.11;1711242;81;21056;-59
2021/08/27 07:17:19;;;;;;;14.60;8.10;;;;;;;15.92;66.70;94112.38;1737006;82;21162;-57
2021/08/27 07:19:47;;;;;;;14.90;9.18;;;;;;;15.94;66.57;94115.41;1728869;82;21182;-55
2021/08/27 07:22:14;;;;;;;17.65;8.25;;;;;;;15.99;66.64;94108.38;1707397;82;21045;-56
2021/08/27 07:24:41;;;;;;;15.20;7.90;;;;;;;16.12;67.11;94089.28;1720295;81;20978;-57
2021/08/27 07:27:10;;;;;;;17.55;8.23;;;;;;;16.26;65.72;94091.85;1705516;82;21075;-59
2021/08/27 07:29:38;;;;;;;17.35;9.05;;;;;;;16.33;64.88;94088.61;1701922;82;21124;-58
2021/08/27 07:32:11;;;;;;;19.15;8.30;;;;;;;16.39;64.48;94081.08;1682681;83;21478;-56
2021/08/27 07:34:34;;;;;;;13.03;7.97;;;;;;;16.50;64.27;94072.16;1689860;83;21994;-60
2021/08/27 07:37:01;;;;;;;17.10;8.48;;;;;;;16.69;63.24;94079.41;1692383;83;21000;-58
2021/08/27 07:39:28;;;;;;;13.03;8.33;;;;;;;16.77;62.90;94076.99;1664984;83;21049;-58
2021/08/27 07:41:55;;;;;;;17.85;8.30;;;;;;;16.85;62.77;94078.64;1678887;83;22261;-61
2021/08/27 07:44:22;;;;;;;17.62;8.48;;;;;;;16.99;62.71;94075.65;1692757;83;21053;-57
2021/08/27 07:46:50;;;;;;;12.95;8.25;;;;;;;17.19;62.36;94071.84;1670919;84;21277;-59
2021/08/27 07:49:18;;;;;;;14.13;8.50;;;;;;;17.33;61.82;94058.33;1679671;84;21531;-56
2021/08/27 07:51:46;;;;;;;13.03;8.10;;;;;;;17.45;61.48;94050.14;1690604;83;21136;-60
2021/08/27 07:54:14;;;;;;;10.58;7.60;;;;;;;17.55;61.40;94056.31;1681623;83;21050;-57
2021/08/27 07:56:41;;;;;;;14.53;7.47;;;;;;;17.63;60.71;94057.95;1660970;83;22541;-61
2021/08/27 07:59:09;;;;;;;10.35;6.75;;;;;;;17.70;60.42;94054.63;1667174;83;21065;-57
2021/08/27 08:01:36;;;;;;;12.43;7.42;;;;;;;17.83;59.81;94052.08;1689198;83;21065;-57
2021/08/27 08:04:03;;;;;;;13.93;7.65;;;;;;;17.99;59.87;94046.45;1678040;82;20991;-58
2021/08/27 08:06:35;;;;;;;14.93;7.10;;;;;;;18.20;60.50;94039.27;1685528;84;21136;-57
2021/08/27 08:09:02;;;;;;;8.28;5.97;;;;;;;18.49;59.43;94038.66;1674446;83;22181;-56
2021/08/27 08:11:29;;;;;;;10.43;6.15;;;;;;;18.76;58.07;94047.48;1688320;83;20984;-57
2021/08/27 08:13:58;;;;;;;11.00;6.58;;;;;;;18.92;57.65;94046.61;1687073;83;21124;-56
2021/08/27 08:16:25;;;;;;;9.85;6.53;;;;;;;18.99;57.13;94041.89;1683069;83;21587;-58
2021/08/27 08:18:52;;;;;;;12.73;7.08;;;;;;;19.02;56.99;94044.38;1681629;83;21139;-57
2021/08/27 08:21:22;;;;;;;9.95;6.62;;;;;;;19.08;56.88;94037.38;1676068;83;21112;-57
2021/08/27 08:23:47;;;;;;;10.03;6.03;;;;;;;19.12;56.87;94040.00;1678032;83;21128;-60
2021/08/27 08:26:14;;;;;;;14.28;6.90;;;;;;;19.18;56.04;94043.53;1702423;83;21090;-60
2021/08/27 08:28:42;;;;;;;14.70;6.60;;;;;;;19.22;56.26;94040.47;1705404;82;21627;-60
2021/08/27 08:31:10;;;;;;;17.37;8.68;;;;;;;19.30;55.99;94043.56;1702510;82;21087;-57
2021/08/27 08:33:37;;;;;;;21.25;8.53;;;;;;;19.37;55.84;94041.59;1710771;82;21630;-59
2021/08/27 08:36:05;;;;;;;16.55;8.40;;;;;;;19.47;55.98;94033.64;1693148;82;21067;-60
2021/08/27 08:38:32;;;;;;;18.25;8.83;;;;;;;19.61;55.62;94033.89;1717546;82;22270;-57
2021/08/27 08:40:59;;;;;;;21.33;8.75;;;;;;;19.75;55.77;94040.46;1702120;82;21013;-56
2021/08/27 08:43:28;;;;;;;31.05;10.03;;;;;;;19.86;55.29;94037.56;1717810;82;21205;-55
2021/08/27 08:45:55;;;;;;;13.90;7.37;;;;;;;19.96;55.42;94042.89;1719617;81;21060;-57
2021/08/27 08:48:23;;;;;;;15.98;8.08;;;;;;;19.99;54.97;94044.66;1691327;83;21062;-58
2021/08/27 08:50:51;;;;;;;20.40;8.28;;;;;;;19.98;55.62;94043.16;1701479;82;21791;-59
2021/08/27 08:53:23;;;;;;;21.40;7.85;;;;;;;19.94;55.64;94042.66;1690435;82;21035;-58
2021/08/27 08:55:50;;;;;;;24.57;8.45;;;;;;;19.86;55.84;94043.77;1677844;83;21833;-57
2021/08/27 08:58:18;;;;;;;34.20;8.73;;;;;;;19.72;56.18;94044.30;1671123;84;21546;-58
2021/08/27 09:00:45;;;;;;;26.50;14.87;;;;;;;19.62;56.51;94048.73;1690186;84;21761;-56
2021/08/27 09:03:14;;;;;;;62.25;37.38;;;;;;;19.53;56.86;94046.27;1678125;83;21226;-60
2021/08/27 09:05:43;;;;;;;26.70;11.80;;;;;;;19.49;57.03;94047.20;1679004;83;21076;-54
2021/08/27 09:08:09;;;;;;;29.35;19.65;;;;;;;19.47;56.69;94044.17;1684362;83;21196;-57
2021/08/27 09:10:43;;;;;;;17.65;9.68;;;;;;;19.45;56.83;94040.38;1666097;84;21199;-60
2021/08/27 09:13:10;;;;;;;17.23;8.15;;;;;;;19.47;56.72;94038.59;1662491;84;21061;-57
2021/08/27 09:15:37;;;;;;;23.15;8.90;;;;;;;19.53;56.79;94032.31;1658921;85;21596;-60
2021/08/27 09:18:10;;;;;;;15.90;8.55;;;;;;;19.61;56.72;94030.47;1660864;84;22159;-60
2021/08/27 09:20:38;;;;;;;19.77;9.53;;;;;;;19.60;56.58;94016.38;1652914;84;21170;-59
2021/08/27 09:23:06;;;;;;;18.10;8.80;;;;;;;19.58;56.67;94014.75;1654176;84;21570;-59
2021/08/27 09:25:36;;;;;;;12.45;7.00;;;;;;;19.61;56.63;94016.52;1644169;84;21069;-61
2021/08/27 09:28:09;;;;;;;14.90;8.38;;;;;;;19.65;56.38;94012.80;1659458;84;21073;-55
2021/08/27 09:30:57;;;;;;;13.85;8.10;;;;;;;19.62;56.60;94017.27;1660220;84;22252;-56
2021/08/27 09:33:30;;;;;;;18.07;8.90;;;;;;;19.59;56.35;94016.27;1673624;84;21137;-58
2021/08/27 09:36:01;;;;;;;20.00;7.78;;;;;;;19.58;56.61;94021.73;1659897;84;21124;-59
2021/08/27 09:38:34;;;;;;;18.55;7.80;;;;;;;19.59;56.37;94029.47;1662671;84;21203;-58
2021/08/27 09:41:07;;;;;;;14.93;8.13;;;;;;;19.63;56.21;94025.75;1669686;84;21066;-55
2021/08/27 09:43:52;;;;;;;21.65;11.68;;;;;;;19.70;55.78;94022.40;1658126;84;21371;-59
2021/08/27 09:46:33;;;;;;;26.15;7.33;;;;;;;19.75;55.82;94023.71;1651892;84;21242;-57
2021/08/27 09:49:01;;;;;;;17.40;7.87;;;;;;;19.83;55.95;94024.66;1653467;84;21014;-59
2021/08/27 09:51:46;;;;;;;17.62;7.95;;;;;;;19.85;55.51;94019.92;1656973;84;21073;-59
2021/08/27 09:54:30;;;;;;;16.87;7.75;;;;;;;19.84;55.80;94024.77;1671463;83;21057;-59
2021/08/27 09:57:01;;;;;;;23.35;8.53;;;;;;;19.86;56.43;94021.44;1682465;84;21074;-56
2021/08/27 09:59:46;;;;;;;17.10;9.13;;;;;;;19.91;56.53;94024.17;1664069;84;21124;-56
2021/08/27 10:02:30;;;;;;;14.47;8.65;;;;;;;20.00;56.70;94027.25;1663753;84;21498;-56
2021/08/27 10:04:59;;;;;;;17.30;7.08;;;;;;;20.11;56.26;94017.39;1669338;83;21182;-57
2021/08/27 10:07:41;;;;;;;27.55;9.08;;;;;;;20.21;55.32;94014.45;1685332;83;21050;-57
2021/08/27 10:10:11;;;;;;;14.23;7.53;;;;;;;20.33;55.13;94016.45;1675568;83;22365;-58
2021/08/27 10:12:40;;;;;;;16.02;7.25;;;;;;;20.42;55.18;94003.52;1705387;83;21140;-57
2021/08/27 10:15:12;;;;;;;12.23;6.30;;;;;;;20.47;55.37;93998.48;1673350;84;21054;-57
2021/08/27 10:17:41;;;;;;;12.23;7.90;;;;;;;20.50;54.68;93996.03;1680432;82;21061;-58
2021/08/27 10:20:10;;;;;;;13.98;6.50;;;;;;;20.47;54.62;93990.11;1667108;84;21092;-57
2021/08/27 10:22:41;;;;;;;11.85;6.55;;;;;;;20.46;53.65;93985.80;1658615;84;21100;-57
2021/08/27 10:25:11;;;;;;;12.45;6.33;;;;;;;20.49;53.76;93982.71;1676708;84;21177;-56
2021/08/27 10:27:38;;;;;;;13.70;7.30;;;;;;;20.56;53.47;93986.95;1660063;84;21120;-59
2021/08/27 10:30:07;;;;;;;15.85;6.90;;;;;;;20.64;53.09;93984.41;1656757;84;22283;-55
2021/08/27 10:32:44;;;;;;;22.25;7.12;;;;;;;20.74;52.77;93989.70;1715825;83;21094;-57
2021/08/27 10:35:27;;;;;;;16.35;6.47;;;;;;;20.82;52.77;93986.42;1702736;82;21155;-56
2021/08/27 10:37:54;;;;;;;13.22;7.15;;;;;;;20.90;52.42;93990.13;1668402;84;22167;-55
2021/08/27 10:40:29;;;;;;;25.20;7.47;;;;;;;21.02;52.39;93987.28;1702615;82;21124;-58
2021/08/27 10:43:00;;;;;;;20.68;7.62;;;;;;;21.15;52.79;93980.31;1689273;83;21077;-56
2021/08/27 10:45:42;;;;;;;15.18;7.25;;;;;;;21.27;52.14;93971.11;1659399;83;21152;-57
2021/08/27 10:48:24;;;;;;;14.73;5.85;;;;;;;21.29;51.64;93974.86;1691588;83;21055;-55
2021/08/27 10:50:56;;;;;;;11.88;6.67;;;;;;;21.34;50.89;93979.63;1686814;83;21139;-56
2021/08/27 10:53:34;;;;;;;;;;;;;;;21.29;51.37;93979.72;1678843;83;21488;-59
2021/08/27 10:56:05;;;;;;;18.37;6.55;;;;;;;21.23;50.84;93970.64;1687590;83;20168;-57
2021/08/27 10:58:48;;;;;;;18.05;5.90;;;;;;;21.16;50.42;93973.45;1682686;83;21099;-55
2021/08/27 11:01:34;;;;;;;11.28;5.80;;;;;;;21.14;50.36;93976.00;1677218;83;21108;-60
2021/08/27 11:04:11;;;;;;;18.40;7.80;;;;;;;21.15;50.81;93973.97;1673819;85;21860;-57
2021/08/27 11:07:04;;;;;;;9.00;5.17;;;;;;;21.23;51.37;93977.64;1720451;83;21153;-61
2021/08/27 11:09:34;;;;;;;7.33;5.12;;;;;;;21.28;52.71;93978.21;1711221;83;22340;-60
2021/08/27 11:12:13;;;;;;;8.40;5.00;;;;;;;21.33;52.04;93981.55;1716964;83;21085;-58
2021/08/27 11:14:43;;;;;;;9.15;5.12;;;;;;;21.33;52.58;93977.35;1716590;82;21084;-61
2021/08/27 11:17:11;;;;;;;8.98;5.55;;;;;;;21.32;52.48;93980.05;1717708;81;21012;-55
2021/08/27 11:19:58;;;;;;;8.60;5.40;;;;;;;21.27;52.96;93978.10;1736738;81;21612;-58
2021/08/27 11:22:33;;;;;;;9.80;6.17;;;;;;;21.23;53.34;93983.23;1725272;81;21028;-58
2021/08/27 11:25:10;;;;;;;9.45;5.58;;;;;;;21.15;53.57;93987.30;1723593;81;21189;-57
2021/08/27 11:27:38;;;;;;;10.13;5.83;;;;;;;21.09;53.77;93990.11;1726330;81;21481;-59
2021/08/27 11:30:31;;;;;;;11.57;6.35;;;;;;;21.07;54.64;93987.09;1725406;80;21113;-55
2021/08/27 11:33:01;;;;;;;9.40;7.08;;;;;;;21.04;56.06;93986.10;1718145;81;20993;-59
2021/08/27 11:35:29;;;;;;;11.48;6.28;;;;;;;20.92;56.55;93981.96;1717915;81;21098;-53
2021/08/27 11:37:58;;;;;;;11.15;7.50;;;;;;;20.79;56.36;93972.74;1735936;81;21197;-58